Time;durP1;ratioP1;P1;durP2;ratioP2;P2;SDS_P1;SDS_P2;PMS_P1;PMS_P2;Temp;Humidity;BMP_temperature;BMP_pressure;BME280_temperature;BME280_humidity;BME280_pressure;Samples;Min_cycle;Max_cycle;Signal;HPM_P1;HPM_P2
2020/12/13 00:01:40;;;;;;;7.40;4.27;;;6.80;99.90;;;;;;5084052;28;20619;-77
2020/12/13 00:04:06;;;;;;;5.07;4.60;;;6.80;99.90;;;;;;5080856;28;20196;-77
2020/12/13 00:06:32;;;;;;;4.10;3.80;;;6.80;99.90;;;;;;5084754;28;20210;-77
2020/12/13 00:08:59;;;;;;;4.17;3.80;;;6.80;99.90;;;;;;5082037;28;20262;-78
2020/12/13 00:11:25;;;;;;;4.87;3.90;;;6.80;99.90;;;;;;5084124;28;20454;-78
2020/12/13 00:13:50;;;;;;;4.63;4.23;;;6.80;99.90;;;;;;5085341;28;20425;-78
2020/12/13 00:16:16;;;;;;;7.17;3.93;;;6.80;99.90;;;;;;5087407;28;20179;-78
2020/12/13 00:18:43;;;;;;;6.87;4.33;;;6.80;99.90;;;;;;5088615;28;20193;-78
2020/12/13 00:21:15;;;;;;;4.53;3.80;;;6.80;99.90;;;;;;5086634;28;21086;-78
2020/12/13 00:23:41;;;;;;;3.93;3.63;;;6.80;99.90;;;;;;5084925;28;20435;-78
2020/12/13 00:26:11;;;;;;;4.90;3.60;;;6.70;99.90;;;;;;5084966;28;20521;-78
2020/12/13 00:28:37;;;;;;;3.63;3.30;;;6.70;99.90;;;;;;5081502;28;20811;-78
2020/12/13 00:31:04;;;;;;;4.57;3.43;;;6.80;99.90;;;;;;5083040;28;20531;-78
2020/12/13 00:33:30;;;;;;;6.87;3.60;;;6.80;99.90;;;;;;5082854;28;20420;-77
2020/12/13 00:35:55;;;;;;;3.73;3.43;;;6.70;99.90;;;;;;5083516;28;20561;-78
2020/12/13 00:38:21;;;;;;;5.53;4.27;;;6.80;99.90;;;;;;5082008;28;20261;-78
2020/12/13 00:40:51;;;;;;;4.40;4.00;;;6.70;99.90;;;;;;5081594;28;20197;-77
2020/12/13 00:43:17;;;;;;;5.57;3.63;;;6.80;99.90;;;;;;5082639;28;20182;-77
2020/12/13 00:45:43;;;;;;;4.47;4.07;;;6.80;99.90;;;;;;5080022;28;20521;-78
2020/12/13 00:48:09;;;;;;;4.30;3.90;;;6.80;99.90;;;;;;5083496;28;20515;-77
2020/12/13 00:50:39;;;;;;;4.43;3.90;;;6.70;99.90;;;;;;5080489;28;20188;-77
2020/12/13 00:53:06;;;;;;;4.67;4.13;;;6.70;99.90;;;;;;5080431;28;20179;-77
2020/12/13 00:55:31;;;;;;;8.00;4.90;;;6.70;99.90;;;;;;5083569;28;20579;-77
2020/12/13 00:57:57;;;;;;;7.13;4.27;;;6.70;99.90;;;;;;5081051;28;20989;-77
2020/12/13 01:00:23;;;;;;;4.53;4.10;;;6.70;99.90;;;;;;5086547;28;20569;-77
2020/12/13 01:02:49;;;;;;;5.23;4.00;;;6.70;99.90;;;;;;5083068;28;20181;-77
2020/12/13 01:05:15;;;;;;;7.40;3.73;;;6.70;99.90;;;;;;5082627;28;20420;-77
2020/12/13 01:07:42;;;;;;;4.53;4.13;;;6.80;99.90;;;;;;5080375;28;20440;-77
2020/12/13 01:10:09;;;;;;;7.07;4.30;;;6.70;99.90;;;;;;5083629;28;20199;-76
2020/12/13 01:12:34;;;;;;;5.00;4.50;;;6.70;99.90;;;;;;5080229;28;20417;-77
2020/12/13 01:15:00;;;;;;;5.63;4.13;;;6.70;99.90;;;;;;5083213;28;20550;-77
2020/12/13 01:17:25;;;;;;;3.97;3.67;;;6.60;99.90;;;;;;5080699;28;20171;-78
2020/12/13 01:19:51;;;;;;;6.97;4.40;;;6.60;99.90;;;;;;5079807;28;20250;-77
2020/12/13 01:22:16;;;;;;;3.77;3.40;;;6.60;99.90;;;;;;5082260;28;20187;-77
2020/12/13 01:24:42;;;;;;;5.33;3.97;;;6.50;99.90;;;;;;5080550;28;20180;-77
2020/12/13 01:27:07;;;;;;;4.73;3.73;;;6.60;99.90;;;;;;5083921;28;20703;-77
2020/12/13 01:29:33;;;;;;;5.40;4.30;;;6.60;99.90;;;;;;5078757;28;20173;-78
2020/12/13 01:31:58;;;;;;;6.47;3.60;;;6.50;99.90;;;;;;5083020;28;20201;-77
2020/12/13 01:34:24;;;;;;;4.30;3.90;;;6.60;99.90;;;;;;5079806;28;20202;-77
2020/12/13 01:36:49;;;;;;;5.10;3.87;;;6.60;99.90;;;;;;5081869;28;20223;-77
2020/12/13 01:39:15;;;;;;;4.53;3.97;;;6.60;99.90;;;;;;5082535;28;20228;-77
2020/12/13 01:41:40;;;;;;;4.53;3.60;;;6.60;99.90;;;;;;5080182;28;20571;-77
2020/12/13 01:44:06;;;;;;;4.30;3.90;;;6.60;99.90;;;;;;5083359;28;20176;-77
2020/12/13 01:46:33;;;;;;;3.27;3.03;;;6.50;99.90;;;;;;5080023;28;20207;-78
2020/12/13 01:49:05;;;;;;;5.57;4.10;;;6.50;99.90;;;;;;5088526;28;20185;-77
2020/12/13 01:51:51;;;;;;;4.63;4.30;;;6.50;99.90;;;;;;5082751;28;20500;-77
2020/12/13 01:54:19;;;;;;;4.47;4.07;;;6.50;99.90;;;;;;5080899;28;20438;-77
2020/12/13 01:56:57;;;;;;;4.00;3.70;;;6.50;99.90;;;;;;5081845;28;20771;-77
2020/12/13 01:59:25;;;;;;;10.20;3.53;;;6.50;99.90;;;;;;5081483;28;20891;-77
2020/12/13 02:02:01;;;;;;;3.83;3.53;;;6.50;99.90;;;;;;5081395;28;20492;-78
2020/12/13 02:04:28;;;;;;;5.53;4.20;;;6.50;99.90;;;;;;5082296;28;20525;-77
2020/12/13 02:06:54;;;;;;;6.20;4.80;;;6.50;99.90;;;;;;5080726;28;20464;-77
2020/12/13 02:09:24;;;;;;;4.40;4.00;;;6.40;99.90;;;;;;5081223;28;20547;-77
2020/12/13 02:11:51;;;;;;;3.70;3.40;;;6.40;99.90;;;;;;5081154;28;20449;-77
2020/12/13 02:14:17;;;;;;;4.47;3.97;;;6.50;99.90;;;;;;5080874;28;20419;-77
2020/12/13 02:16:53;;;;;;;4.30;3.90;;;6.40;99.90;;;;;;5082560;28;20477;-78
2020/12/13 02:19:19;;;;;;;3.77;3.20;;;6.40;99.90;;;;;;5081023;28;20444;-77
2020/12/13 02:21:47;;;;;;;4.80;4.30;;;6.40;99.90;;;;;;5081817;28;20450;-77
2020/12/13 02:24:13;;;;;;;5.80;4.23;;;6.40;99.90;;;;;;5078634;28;20471;-77
2020/12/13 02:26:40;;;;;;;4.47;4.10;;;6.40;99.90;;;;;;5082863;28;20473;-77
2020/12/13 02:29:06;;;;;;;5.17;4.70;;;6.40;99.90;;;;;;5079588;28;20428;-77
2020/12/13 02:31:32;;;;;;;4.40;4.10;;;6.40;99.90;;;;;;5082934;28;20519;-77
2020/12/13 02:33:57;;;;;;;5.40;3.23;;;6.50;99.90;;;;;;5080535;28;20187;-78
2020/12/13 02:36:23;;;;;;;3.43;3.13;;;6.50;99.90;;;;;;5082382;28;20871;-77
2020/12/13 02:38:48;;;;;;;3.70;3.40;;;6.50;99.90;;;;;;5081688;28;20179;-77
2020/12/13 02:41:14;;;;;;;3.60;3.03;;;6.50;99.90;;;;;;5080729;28;20255;-78
2020/12/13 02:43:39;;;;;;;3.70;3.30;;;6.50;99.90;;;;;;5082375;28;20577;-77
2020/12/13 02:46:05;;;;;;;3.67;3.30;;;6.50;99.90;;;;;;5082797;28;20198;-77
2020/12/13 02:48:30;;;;;;;3.60;3.30;;;6.50;99.90;;;;;;5088244;28;20181;-77
2020/12/13 02:50:56;;;;;;;3.87;3.20;;;6.40;99.90;;;;;;5091248;28;20232;-77
2020/12/13 02:53:21;;;;;;;3.13;2.90;;;6.40;99.90;;;;;;5084969;28;20200;-77
2020/12/13 02:55:47;;;;;;;3.73;3.43;;;6.50;99.90;;;;;;5085256;28;20181;-77
2020/12/13 02:58:12;;;;;;;4.23;3.60;;;6.50;99.90;;;;;;5083814;28;20216;-78
2020/12/13 03:00:38;;;;;;;4.20;3.80;;;6.50;99.90;;;;;;5086265;28;20206;-77
2020/12/13 03:03:03;;;;;;;4.23;3.23;;;6.50;99.90;;;;;;5081638;28;20555;-77
2020/12/13 03:05:29;;;;;;;3.37;3.17;;;6.50;99.90;;;;;;5085750;28;20193;-78
2020/12/13 03:07:54;;;;;;;3.33;3.13;;;6.40;99.90;;;;;;5084264;28;20180;-77
2020/12/13 03:10:20;;;;;;;2.97;2.60;;;6.40;99.90;;;;;;5085737;28;20702;-77
2020/12/13 03:12:45;;;;;;;3.23;2.90;;;6.40;99.90;;;;;;5085473;28;20177;-77
2020/12/13 03:15:11;;;;;;;3.57;3.33;;;6.50;99.90;;;;;;5081810;28;20186;-77
2020/12/13 03:17:36;;;;;;;3.27;3.07;;;6.50;99.90;;;;;;5085152;28;20177;-77
2020/12/13 03:20:03;;;;;;;2.70;2.43;;;6.40;99.90;;;;;;5082211;28;20239;-77
2020/12/13 03:22:29;;;;;;;4.27;3.17;;;6.40;99.90;;;;;;5085577;28;20176;-77
2020/12/13 03:24:54;;;;;;;3.10;2.80;;;6.40;99.90;;;;;;5083319;28;20418;-77
2020/12/13 03:27:24;;;;;;;2.93;2.73;;;6.40;99.90;;;;;;5084031;28;20235;-77
2020/12/13 03:29:50;;;;;;;3.47;3.17;;;6.40;99.90;;;;;;5084026;28;20278;-77
2020/12/13 03:32:15;;;;;;;2.87;2.60;;;6.50;99.90;;;;;;5083548;28;20517;-77
2020/12/13 03:34:41;;;;;;;3.67;3.23;;;6.40;99.90;;;;;;5085199;28;20212;-77
2020/12/13 03:37:07;;;;;;;3.67;2.57;;;6.40;99.90;;;;;;5082572;28;20301;-77
2020/12/13 03:39:32;;;;;;;2.90;2.70;;;6.40;99.90;;;;;;5084220;28;20248;-78
2020/12/13 03:41:58;;;;;;;3.87;2.83;;;6.30;99.90;;;;;;5082976;28;20232;-78
2020/12/13 03:44:24;;;;;;;6.03;2.93;;;6.30;99.90;;;;;;5084138;28;20184;-77
2020/12/13 03:46:49;;;;;;;3.23;3.03;;;6.30;99.90;;;;;;5083973;28;20220;-77
2020/12/13 03:49:15;;;;;;;5.73;3.63;;;6.30;99.90;;;;;;5083058;28;20542;-78
2020/12/13 03:51:40;;;;;;;4.40;3.53;;;6.30;99.90;;;;;;5085187;28;20553;-78
2020/12/13 03:54:06;;;;;;;3.40;3.20;;;6.30;99.90;;;;;;5082043;28;20201;-77
2020/12/13 03:56:31;;;;;;;5.47;3.43;;;6.30;99.90;;;;;;5084832;28;20294;-77
2020/12/13 03:58:57;;;;;;;4.10;3.80;;;6.30;99.90;;;;;;5083032;28;21385;-78
2020/12/13 04:01:23;;;;;;;3.43;3.13;;;6.30;99.90;;;;;;5084183;28;20202;-78
2020/12/13 04:03:48;;;;;;;3.20;2.97;;;6.20;99.90;;;;;;5084018;28;20226;-78
2020/12/13 04:06:14;;;;;;;4.13;3.10;;;6.20;99.90;;;;;;5082898;28;20267;-77
2020/12/13 04:08:39;;;;;;;4.13;3.23;;;6.30;99.90;;;;;;5083858;28;20175;-78
2020/12/13 04:11:05;;;;;;;3.30;3.00;;;6.30;99.90;;;;;;5081738;28;20198;-78
2020/12/13 04:13:30;;;;;;;3.70;3.43;;;6.30;99.90;;;;;;5084609;28;20179;-78
2020/12/13 04:15:56;;;;;;;4.83;3.63;;;6.30;99.90;;;;;;5081709;28;20182;-77
2020/12/13 04:18:21;;;;;;;2.77;2.57;;;6.30;99.90;;;;;;5083416;28;20213;-77
2020/12/13 04:20:47;;;;;;;3.83;2.80;;;6.30;99.90;;;;;;5083824;28;20299;-78
2020/12/13 04:23:12;;;;;;;4.17;2.90;;;6.30;99.90;;;;;;5082311;28;20183;-77
2020/12/13 04:25:38;;;;;;;4.83;3.37;;;6.30;99.90;;;;;;5083310;28;20259;-77
2020/12/13 04:28:03;;;;;;;3.47;2.80;;;6.30;99.90;;;;;;5081691;28;20665;-77
2020/12/13 04:30:29;;;;;;;2.80;2.60;;;6.30;99.90;;;;;;5084176;28;20472;-77
2020/12/13 04:32:55;;;;;;;3.17;2.87;;;6.30;99.90;;;;;;5082457;28;20584;-77
2020/12/13 04:35:20;;;;;;;3.67;3.37;;;6.30;99.90;;;;;;5083037;28;20196;-78
2020/12/13 04:37:46;;;;;;;3.30;2.60;;;6.30;99.90;;;;;;5083751;28;20193;-78
2020/12/13 04:40:11;;;;;;;3.37;3.17;;;6.40;99.90;;;;;;5081895;28;20303;-77
2020/12/13 04:42:38;;;;;;;3.80;3.50;;;6.40;99.90;;;;;;5084930;28;20174;-77
2020/12/13 04:45:08;;;;;;;3.43;3.23;;;6.40;99.90;;;;;;5081176;28;20640;-77
2020/12/13 04:47:41;;;;;;;4.20;3.30;;;6.30;99.90;;;;;;5081102;28;20814;-77
2020/12/13 04:50:06;;;;;;;3.60;2.57;;;6.40;99.90;;;;;;5083173;28;20511;-77
2020/12/13 04:52:33;;;;;;;3.03;2.87;;;6.40;99.90;;;;;;5084669;28;20925;-77
2020/12/13 04:54:59;;;;;;;3.70;3.40;;;6.30;99.90;;;;;;5080249;28;20216;-77
2020/12/13 04:57:24;;;;;;;3.40;3.10;;;6.40;99.90;;;;;;5083269;28;20465;-77
2020/12/13 04:59:50;;;;;;;3.17;2.47;;;6.30;99.90;;;;;;5082614;28;20218;-77
2020/12/13 05:02:17;;;;;;;3.97;2.93;;;6.40;99.90;;;;;;5082277;28;20182;-77
2020/12/13 05:04:43;;;;;;;2.80;2.60;;;6.40;99.90;;;;;;5081913;28;20960;-77
2020/12/13 05:07:09;;;;;;;7.30;3.47;;;6.40;99.90;;;;;;5081086;28;20984;-77
2020/12/13 05:09:37;;;;;;;2.80;2.57;;;6.40;99.90;;;;;;5084669;28;20468;-77
2020/12/13 05:12:03;;;;;;;4.90;3.07;;;6.40;99.90;;;;;;5080832;28;20505;-77
2020/12/13 05:14:28;;;;;;;3.30;3.00;;;6.30;99.90;;;;;;5083046;28;20476;-77
2020/12/13 05:17:07;;;;;;;3.60;3.30;;;6.40;99.90;;;;;;5081980;28;20184;-77
2020/12/13 05:19:32;;;;;;;3.30;2.87;;;6.30;99.90;;;;;;5082824;28;20221;-77
2020/12/13 05:22:00;;;;;;;3.27;2.70;;;6.30;99.90;;;;;;5081977;28;20516;-77
2020/12/13 05:24:27;;;;;;;2.67;2.47;;;6.30;99.90;;;;;;5083319;28;20185;-77
2020/12/13 05:27:06;;;;;;;2.23;2.13;;;6.30;99.90;;;;;;5082364;28;20457;-78
2020/12/13 05:29:34;;;;;;;2.63;2.43;;;6.40;99.90;;;;;;5083511;28;20604;-77
2020/12/13 05:32:22;;;;;;;5.20;2.73;;;6.30;99.90;;;;;;5080966;28;20818;-77
2020/12/13 05:34:50;;;;;;;3.10;2.63;;;6.30;99.90;;;;;;5081716;28;20922;-77
2020/12/13 05:37:16;;;;;;;3.20;2.93;;;6.40;99.90;;;;;;5083015;28;20432;-78
2020/12/13 05:39:52;;;;;;;2.60;2.40;;;6.40;99.90;;;;;;5080341;28;20493;-77
2020/12/13 05:42:30;;;;;;;2.90;2.47;;;6.40;99.90;;;;;;5082815;28;20512;-77
2020/12/13 05:53:22;;;;;;;2.93;2.63;;;6.40;99.90;;;;;;5081460;28;20848;-77
2020/12/13 05:55:52;;;;;;;2.97;2.70;;;6.40;99.90;;;;;;5081675;28;20419;-78
2020/12/13 05:58:18;;;;;;;2.30;2.20;;;6.40;99.90;;;;;;5082350;28;20193;-77
2020/12/13 06:00:44;;;;;;;2.20;1.50;;;6.50;99.90;;;;;;5079223;28;20810;-77
2020/12/13 06:03:13;;;;;;;2.47;1.70;;;6.60;99.90;;;;;;5082493;28;20426;-77
2020/12/13 06:05:42;;;;;;;2.27;1.60;;;6.60;99.90;;;;;;5079170;28;20209;-77
2020/12/13 06:08:13;;;;;;;1.30;1.20;;;6.70;99.90;;;;;;5083255;28;20496;-78
2020/12/13 06:10:42;;;;;;;2.00;1.80;;;6.70;99.90;;;;;;5078782;28;20448;-79
2020/12/13 06:13:08;;;;;;;2.20;1.60;;;6.80;99.90;;;;;;5082964;28;20448;-77
2020/12/13 06:15:35;;;;;;;3.47;3.17;;;6.90;99.90;;;;;;5079458;28;20881;-78
2020/12/13 06:18:03;;;;;;;1.73;1.63;;;6.90;99.90;;;;;;5082650;28;20610;-78
2020/12/13 06:20:29;;;;;;;1.73;1.63;;;6.90;99.90;;;;;;5079311;28;20495;-78
2020/12/13 06:22:56;;;;;;;2.33;2.10;;;6.90;99.90;;;;;;5082099;28;20421;-78
2020/12/13 06:25:22;;;;;;;2.33;1.97;;;6.90;99.90;;;;;;5081167;28;20395;-79
2020/12/13 06:27:52;;;;;;;1.80;1.60;;;6.90;99.90;;;;;;5081436;28;20417;-81
2020/12/13 06:30:19;;;;;;;1.20;1.00;;;6.90;99.90;;;;;;5082255;28;20439;-78
2020/12/13 06:32:46;;;;;;;1.67;1.23;;;7.00;99.90;;;;;;5080548;28;20676;-78
2020/12/13 06:35:13;;;;;;;4.20;1.40;;;7.00;99.90;;;;;;5087621;28;20456;-81
2020/12/13 06:37:39;;;;;;;8.83;2.83;;;7.00;99.90;;;;;;5085241;28;20566;-81
2020/12/13 06:40:07;;;;;;;1.80;1.40;;;7.00;99.90;;;;;;5091982;28;20441;-77
2020/12/13 06:42:37;;;;;;;1.73;1.30;;;7.10;99.90;;;;;;5089706;28;20424;-81
2020/12/13 06:45:05;;;;;;;1.10;1.10;;;7.00;99.90;;;;;;5094695;28;20801;-81
2020/12/13 06:47:31;;;;;;;6.93;1.20;;;7.00;99.90;;;;;;5089442;28;20470;-81
2020/12/13 06:49:57;;;;;;;1.40;1.30;;;7.00;99.90;;;;;;5093262;28;20511;-81
2020/12/13 06:52:31;;;;;;;1.30;1.20;;;6.90;99.90;;;;;;5091212;28;20600;-81
2020/12/13 06:55:07;;;;;;;2.87;0.90;;;7.00;99.90;;;;;;5093229;28;20198;-80
2020/12/13 06:57:33;;;;;;;1.60;1.50;;;7.00;99.90;;;;;;5090757;28;20919;-81
2020/12/13 07:00:05;;;;;;;3.60;1.17;;;7.00;99.90;;;;;;5093217;28;20472;-80
2020/12/13 07:02:46;;;;;;;1.20;1.10;;;7.00;99.90;;;;;;5090099;28;20510;-81
2020/12/13 07:05:13;;;;;;;1.50;1.40;;;7.00;99.90;;;;;;5088937;28;20424;-80
2020/12/13 07:07:39;;;;;;;1.10;1.10;;;7.10;99.90;;;;;;5091730;28;20545;-80
2020/12/13 07:10:09;;;;;;;1.27;1.00;;;7.00;99.90;;;;;;5080823;28;20464;-76
2020/12/13 07:12:37;;;;;;;1.10;1.10;;;7.10;99.90;;;;;;5078728;28;20411;-76
2020/12/13 07:15:16;;;;;;;1.33;1.23;;;7.10;99.90;;;;;;5081821;28;20455;-75
2020/12/13 07:17:43;;;;;;;0.80;0.80;;;7.10;99.90;;;;;;5079249;28;20415;-75
2020/12/13 07:20:08;;;;;;;1.10;1.10;;;7.10;99.90;;;;;;5081925;28;20966;-76
2020/12/13 07:22:34;;;;;;;1.10;1.10;;;7.10;99.90;;;;;;5078673;28;20455;-76
2020/12/13 07:25:00;;;;;;;1.33;1.17;;;7.10;99.90;;;;;;5080032;28;20535;-76
2020/12/13 07:27:27;;;;;;;2.47;0.90;;;7.10;99.90;;;;;;5079523;28;20229;-75
2020/12/13 07:29:56;;;;;;;1.57;1.47;;;7.10;99.90;;;;;;5080336;28;20817;-75
2020/12/13 07:32:22;;;;;;;1.03;0.80;;;7.10;99.90;;;;;;5086538;28;20447;-75
2020/12/13 07:34:49;;;;;;;1.23;1.23;;;7.10;99.90;;;;;;5086912;28;20425;-76
2020/12/13 07:37:16;;;;;;;2.03;1.83;;;7.10;99.90;;;;;;5085634;28;20450;-76
2020/12/13 07:39:42;;;;;;;1.83;1.20;;;7.10;99.90;;;;;;5082263;28;20498;-75
2020/12/13 07:42:08;;;;;;;3.40;0.97;;;7.10;99.90;;;;;;5084224;28;20423;-75
2020/12/13 07:44:33;;;;;;;0.90;0.90;;;7.10;99.90;;;;;;5080306;28;20178;-76
2020/12/13 07:46:59;;;;;;;3.17;1.20;;;7.10;99.90;;;;;;5084648;28;20466;-77
2020/12/13 07:49:24;;;;;;;1.43;0.80;;;7.10;99.90;;;;;;5081677;28;20225;-76
2020/12/13 07:51:52;;;;;;;1.10;1.00;;;7.10;99.90;;;;;;5082014;28;20615;-75
2020/12/13 07:54:26;;;;;;;0.83;0.83;;;7.10;99.90;;;;;;5083584;28;20219;-75
2020/12/13 07:56:53;;;;;;;1.20;1.20;;;7.10;99.90;;;;;;5082392;28;20421;-76
2020/12/13 07:59:21;;;;;;;0.80;0.80;;;7.10;99.90;;;;;;5083462;28;20972;-75
2020/12/13 08:01:51;;;;;;;1.13;1.00;;;7.10;99.90;;;;;;5082511;28;20951;-75
2020/12/13 08:04:40;;;;;;;2.43;1.30;;;7.10;99.90;;;;;;5083169;28;20461;-75
2020/12/13 08:07:10;;;;;;;2.57;2.37;;;7.10;99.90;;;;;;5081406;28;20495;-76
2020/12/13 08:09:38;;;;;;;1.80;1.70;;;7.10;99.90;;;;;;5083052;28;20782;-75
2020/12/13 08:12:13;;;;;;;2.27;2.07;;;7.10;99.90;;;;;;5086136;28;20825;-76
2020/12/13 08:14:39;;;;;;;2.83;2.63;;;7.10;99.90;;;;;;5083676;28;20441;-75
2020/12/13 08:17:05;;;;;;;4.80;4.30;;;7.10;99.90;;;;;;5079999;28;20796;-76
2020/12/13 08:19:34;;;;;;;8.10;6.40;;;7.10;99.90;;;;;;5084296;28;20427;-76
2020/12/13 08:22:20;;;;;;;13.13;7.00;;;7.10;99.90;;;;;;5087248;28;20246;-76
2020/12/13 08:25:02;;;;;;;4.53;4.13;;;7.10;99.90;;;;;;5081922;28;20516;-76
2020/12/13 08:27:29;;;;;;;10.20;6.60;;;7.10;99.90;;;;;;5085058;28;20467;-76
2020/12/13 08:29:57;;;;;;;8.10;6.30;;;7.10;99.90;;;;;;5081156;28;20520;-75
2020/12/13 08:32:23;;;;;;;7.77;5.23;;;7.10;99.90;;;;;;5085002;28;20401;-76
2020/12/13 08:34:49;;;;;;;4.50;4.10;;;7.10;99.90;;;;;;5082100;28;20426;-76
2020/12/13 08:37:24;;;;;;;5.33;4.40;;;7.20;99.90;;;;;;5083278;28;20426;-76
2020/12/13 08:39:50;;;;;;;8.10;3.43;;;7.20;99.90;;;;;;5082367;28;20426;-77
2020/12/13 08:42:23;;;;;;;8.30;4.93;;;7.20;99.90;;;;;;5082471;28;20457;-76
2020/12/13 08:44:49;;;;;;;6.27;4.90;;;7.20;99.90;;;;;;5081402;28;20422;-76
2020/12/13 08:47:17;;;;;;;4.33;3.57;;;7.20;99.90;;;;;;5081142;28;20474;-75
2020/12/13 08:49:47;;;;;;;4.70;4.00;;;7.30;99.90;;;;;;5084300;28;20186;-77
2020/12/13 08:52:16;;;;;;;8.90;4.90;;;7.30;99.90;;;;;;5116004;27;20465;-76
2020/12/13 08:55:05;;;;;;;6.03;4.43;;;7.30;99.90;;;;;;5080688;28;20762;-76
2020/12/13 08:57:35;;;;;;;58.57;25.90;;;7.40;99.90;;;;;;5079514;28;20549;-76
2020/12/13 09:00:10;;;;;;;52.93;23.07;;;7.40;99.90;;;;;;5089930;28;20445;-76
2020/12/13 09:02:36;;;;;;;38.83;16.77;;;7.50;99.90;;;;;;5080404;28;20996;-76
2020/12/13 09:05:04;;;;;;;17.13;9.80;;;7.50;99.90;;;;;;5083224;28;20475;-76
2020/12/13 09:07:32;;;;;;;14.27;8.13;;;7.60;99.90;;;;;;5080752;28;20847;-76
2020/12/13 09:10:13;;;;;;;10.10;5.10;;;7.60;99.90;;;;;;5082600;28;20445;-77
2020/12/13 09:12:40;;;;;;;5.50;4.77;;;7.60;99.90;;;;;;5079962;28;20412;-76
2020/12/13 09:15:14;;;;;;;4.87;4.43;;;7.70;99.90;;;;;;5081887;28;20796;-76
2020/12/13 09:17:40;;;;;;;7.70;7.10;;;7.70;99.90;;;;;;5080155;28;20433;-76
2020/12/13 09:20:06;;;;;;;6.00;5.40;;;7.70;99.90;;;;;;5081838;28;20451;-76
2020/12/13 09:22:32;;;;;;;5.17;4.33;;;7.80;99.90;;;;;;5083492;28;20418;-75
2020/12/13 09:24:58;;;;;;;5.70;4.90;;;7.80;99.90;;;;;;5080093;28;20427;-76
2020/12/13 09:27:24;;;;;;;5.50;4.53;;;7.80;99.90;;;;;;5083252;28;20984;-75
2020/12/13 09:29:51;;;;;;;4.50;4.10;;;7.80;99.90;;;;;;5080978;28;20495;-75
2020/12/13 09:32:20;;;;;;;4.10;3.77;;;7.90;99.90;;;;;;5082075;28;20643;-75
2020/12/13 09:34:46;;;;;;;3.70;3.40;;;7.90;99.90;;;;;;5081832;28;20469;-76
2020/12/13 09:37:15;;;;;;;4.93;4.43;;;7.90;99.90;;;;;;5079585;28;20441;-75
2020/12/13 09:39:41;;;;;;;7.90;4.03;;;7.90;99.90;;;;;;5082243;28;20514;-75
2020/12/13 09:42:07;;;;;;;5.40;4.73;;;8.00;99.90;;;;;;5077587;28;20442;-75
2020/12/13 09:44:33;;;;;;;5.97;4.10;;;8.10;99.90;;;;;;5082477;28;20552;-76
2020/12/13 09:47:00;;;;;;;8.03;4.60;;;8.10;99.90;;;;;;5079968;28;20461;-75
2020/12/13 09:49:27;;;;;;;3.67;3.37;;;8.20;99.90;;;;;;5081340;28;20180;-75
2020/12/13 09:52:01;;;;;;;4.10;3.80;;;8.20;99.90;;;;;;5080271;28;20532;-75
2020/12/13 09:54:26;;;;;;;4.53;4.23;;;8.20;99.90;;;;;;5082251;28;20441;-75
2020/12/13 09:56:53;;;;;;;3.73;3.47;;;8.20;99.90;;;;;;5081923;28;20455;-76
2020/12/13 09:59:19;;;;;;;4.90;4.50;;;8.30;99.90;;;;;;5081024;28;20609;-76
2020/12/13 10:01:44;;;;;;;6.43;4.47;;;8.30;99.90;;;;;;5078737;28;20491;-75
2020/12/13 10:04:10;;;;;;;4.73;3.67;;;8.40;99.90;;;;;;5081927;28;20419;-75
2020/12/13 10:06:48;;;;;;;5.10;4.03;;;8.40;99.90;;;;;;5078925;28;20205;-75
2020/12/13 10:09:17;;;;;;;5.00;4.50;;;8.50;99.90;;;;;;5081366;28;20868;-76
2020/12/13 10:11:44;;;;;;;12.43;4.53;;;8.50;99.90;;;;;;5079452;28;20460;-77
2020/12/13 10:14:13;;;;;;;4.00;3.10;;;8.50;99.90;;;;;;5082155;28;20432;-76
2020/12/13 10:16:43;;;;;;;4.47;3.20;;;8.50;99.90;;;;;;5079075;28;20426;-77
2020/12/13 10:19:10;;;;;;;5.50;3.30;;;8.50;99.90;;;;;;5078781;28;20426;-76
2020/12/13 10:21:36;;;;;;;3.00;2.80;;;8.50;99.90;;;;;;5082312;28;20937;-75
2020/12/13 10:24:03;;;;;;;4.40;3.27;;;8.50;99.90;;;;;;5079186;28;20934;-75
2020/12/13 10:26:32;;;;;;;3.07;2.77;;;8.60;99.90;;;;;;5079799;28;20475;-76
2020/12/13 10:28:58;;;;;;;6.50;2.70;;;8.50;99.90;;;;;;5079964;28;20512;-76
2020/12/13 10:31:32;;;;;;;3.03;2.60;;;8.50;99.90;;;;;;5080695;28;20478;-76
2020/12/13 10:33:59;;;;;;;3.10;2.80;;;8.40;99.90;;;;;;5079419;28;20510;-76
2020/12/13 10:36:25;;;;;;;5.27;2.57;;;8.40;99.90;;;;;;5080893;28;20504;-76
2020/12/13 10:38:53;;;;;;;2.87;2.57;;;8.40;99.90;;;;;;5080717;28;20431;-76
2020/12/13 10:41:20;;;;;;;2.50;2.30;;;8.50;99.90;;;;;;5079834;28;20590;-76
2020/12/13 10:43:46;;;;;;;3.30;2.67;;;8.50;99.90;;;;;;5081259;28;20431;-77
2020/12/13 10:46:12;;;;;;;5.90;2.43;;;8.50;99.90;;;;;;5077838;28;20462;-76
2020/12/13 10:48:38;;;;;;;2.67;1.50;;;8.60;99.90;;;;;;5082270;28;20419;-77
2020/12/13 10:51:03;;;;;;;2.00;1.90;;;8.70;99.90;;;;;;5078830;28;20203;-76
2020/12/13 10:53:29;;;;;;;2.60;2.07;;;8.80;99.90;;;;;;5081386;28;20607;-74
2020/12/13 10:55:54;;;;;;;2.63;1.43;;;9.20;99.90;;;;;;5079245;28;20179;-77
2020/12/13 10:58:20;;;;;;;2.03;1.83;;;9.70;99.90;;;;;;5078607;28;20182;-75
2020/12/13 11:00:47;;;;;;;3.17;1.43;;;10.20;99.90;;;;;;5076558;28;20926;-76
2020/12/13 11:03:13;;;;;;;1.30;1.20;;;10.50;99.90;;;;;;5077854;28;20254;-75
2020/12/13 11:05:38;;;;;;;10.10;5.67;;;10.40;99.90;;;;;;5082639;28;20515;-76
2020/12/13 11:08:04;;;;;;;3.23;2.93;;;10.20;99.90;;;;;;5080712;28;20213;-75
2020/12/13 11:10:29;;;;;;;2.67;2.30;;;10.00;99.90;;;;;;5084456;28;20209;-76
2020/12/13 11:12:55;;;;;;;3.40;1.77;;;10.00;99.90;;;;;;5083415;28;20184;-76
2020/12/13 11:15:20;;;;;;;3.53;2.20;;;9.90;99.90;;;;;;5088774;28;20186;-76
2020/12/13 11:17:46;;;;;;;2.10;1.90;;;9.70;99.90;;;;;;5084657;28;20180;-76
2020/12/13 11:20:12;;;;;;;2.23;1.73;;;9.70;99.90;;;;;;5081708;28;20205;-76
2020/12/13 11:22:37;;;;;;;1.93;1.70;;;9.60;99.90;;;;;;5084870;28;20262;-76
2020/12/13 11:25:03;;;;;;;1.50;1.40;;;9.50;99.90;;;;;;5080033;28;20181;-76
2020/12/13 11:27:29;;;;;;;2.67;2.47;;;9.30;99.90;;;;;;5084235;28;20305;-77
2020/12/13 11:29:54;;;;;;;2.13;1.57;;;9.20;99.90;;;;;;5082890;28;20695;-76
2020/12/13 11:32:20;;;;;;;6.43;2.63;;;9.10;99.90;;;;;;5081141;28;20243;-76
2020/12/13 11:34:45;;;;;;;5.57;2.00;;;9.00;99.90;;;;;;5084488;28;20193;-76
2020/12/13 11:37:11;;;;;;;2.40;2.20;;;9.00;99.90;;;;;;5081646;28;20610;-76
2020/12/13 11:39:37;;;;;;;2.40;2.00;;;9.00;99.90;;;;;;5079485;28;20785;-77
2020/12/13 11:42:04;;;;;;;6.37;2.00;;;8.80;99.90;;;;;;5083988;28;20481;-76
2020/12/13 11:44:29;;;;;;;8.50;2.23;;;8.80;99.90;;;;;;5081231;28;20213;-75
2020/12/13 11:46:55;;;;;;;2.20;2.00;;;8.70;99.90;;;;;;5083867;28;20882;-77
2020/12/13 11:49:22;;;;;;;2.20;1.77;;;8.70;99.90;;;;;;5081350;28;20208;-76
2020/12/13 11:51:48;;;;;;;1.93;1.83;;;8.70;99.90;;;;;;5084092;28;20191;-75
2020/12/13 11:54:14;;;;;;;5.20;1.77;;;8.60;99.90;;;;;;5079913;28;20444;-76
2020/12/13 11:56:40;;;;;;;2.70;1.73;;;8.60;99.90;;;;;;5085053;28;20799;-76
2020/12/13 11:59:06;;;;;;;1.87;1.63;;;8.60;99.90;;;;;;5085189;28;20421;-77
2020/12/13 12:01:31;;;;;;;2.30;2.10;;;8.60;99.90;;;;;;5083890;28;20208;-75
2020/12/13 12:03:57;;;;;;;2.60;1.60;;;8.60;99.90;;;;;;5082782;28;20201;-78
2020/12/13 12:06:23;;;;;;;1.33;1.33;;;8.60;99.90;;;;;;5082544;28;20200;-76
2020/12/13 12:08:49;;;;;;;1.57;1.30;;;8.60;99.90;;;;;;5080525;28;20854;-76
2020/12/13 12:11:19;;;;;;;1.90;1.70;;;8.60;99.90;;;;;;5083293;28;20437;-75
2020/12/13 12:13:45;;;;;;;2.30;1.37;;;8.60;99.90;;;;;;5083995;28;20415;-75
2020/12/13 12:16:10;;;;;;;2.43;2.20;;;8.60;99.90;;;;;;5079169;28;20488;-76
2020/12/13 12:18:36;;;;;;;1.70;1.60;;;8.60;99.90;;;;;;5082553;28;20972;-75
2020/12/13 12:21:15;;;;;;;2.00;1.73;;;8.60;99.90;;;;;;5083625;28;20219;-76
2020/12/13 12:23:41;;;;;;;1.93;1.70;;;8.60;99.90;;;;;;5078481;28;20179;-76
2020/12/13 12:26:06;;;;;;;1.77;1.50;;;8.60;99.90;;;;;;5083165;28;20461;-75
2020/12/13 12:28:32;;;;;;;3.03;1.83;;;8.60;99.90;;;;;;5081265;28;20217;-75
2020/12/13 12:30:57;;;;;;;2.27;2.07;;;8.50;99.90;;;;;;5080913;28;20223;-75
2020/12/13 12:33:23;;;;;;;2.00;1.60;;;8.50;99.90;;;;;;5082583;28;20210;-75
2020/12/13 12:35:48;;;;;;;1.93;1.67;;;8.40;99.90;;;;;;5081513;28;20228;-75
2020/12/13 12:38:14;;;;;;;6.90;4.23;;;8.40;99.90;;;;;;5082014;28;20190;-76
2020/12/13 12:40:39;;;;;;;2.60;2.40;;;8.40;99.90;;;;;;5078918;28;20199;-75
2020/12/13 12:43:05;;;;;;;2.63;2.10;;;8.40;99.90;;;;;;5082499;28;20241;-74
2020/12/13 12:45:31;;;;;;;4.57;1.60;;;8.40;99.90;;;;;;5079320;28;20187;-74
2020/12/13 12:47:56;;;;;;;4.17;2.30;;;8.40;99.90;;;;;;5082527;28;20261;-75
2020/12/13 12:50:22;;;;;;;5.37;2.00;;;8.30;99.90;;;;;;5081970;28;20683;-75
2020/12/13 12:52:47;;;;;;;5.00;2.20;;;8.40;99.90;;;;;;5078440;28;20259;-75
2020/12/13 12:55:13;;;;;;;4.60;2.20;;;8.40;99.90;;;;;;5082403;28;20257;-76
2020/12/13 12:57:38;;;;;;;3.77;2.40;;;8.30;99.90;;;;;;5079028;28;20206;-75
2020/12/13 13:02:32;;;;;;;4.93;3.10;;;8.20;99.90;;;;;;5080120;28;20181;-74
2020/12/13 13:05:02;;;;;;;5.80;3.37;;;8.20;99.90;;;;;;5080109;28;20946;-74
2020/12/13 13:07:32;;;;;;;4.70;3.40;;;8.30;99.90;;;;;;5091347;28;20455;-75